sensor_id;sensor_type;location;lat;lon;timestamp;pressure;altitude;pressure_sealevel;temperature;humidity
64023;BME280;50264;52.088;5.296;2023-04-03T00:01:34;103041.00000000001;;;4.12;78.06
64023;BME280;50264;52.088;5.296;2023-04-03T00:04:47;103045.0;;;4.04;79.77
64023;BME280;50264;52.088;5.296;2023-04-03T00:06:25;103046.0;;;4.12;76.34
64023;BME280;50264;52.088;5.296;2023-04-03T00:08:02;103047.0;;;4.08;77.53
64023;BME280;50264;52.088;5.296;2023-04-03T00:11:15;103051.0;;;4.12;76.92
64023;BME280;50264;52.088;5.296;2023-04-03T00:12:51;103052.0;;;4.03;78.28
64023;BME280;50264;52.088;5.296;2023-04-03T00:14:29;103046.0;;;3.97;78.67
64023;BME280;50264;52.088;5.296;2023-04-03T00:16:06;103048.0;;;3.94;77.41
64023;BME280;50264;52.088;5.296;2023-04-03T00:19:19;103051.0;;;3.82;78.16
64023;BME280;50264;52.088;5.296;2023-04-03T00:20:56;103053.0;;;3.83;78.66
64023;BME280;50264;52.088;5.296;2023-04-03T00:22:34;103055.0;;;3.85;79.66
64023;BME280;50264;52.088;5.296;2023-04-03T00:25:46;103053.0;;;3.88;78.61
64023;BME280;50264;52.088;5.296;2023-04-03T00:27:23;103054.0;;;3.84;77.83
64023;BME280;50264;52.088;5.296;2023-04-03T00:28:59;103055.0;;;3.86;78.69
64023;BME280;50264;52.088;5.296;2023-04-03T00:32:12;103055.0;;;3.82;77.75
64023;BME280;50264;52.088;5.296;2023-04-03T00:33:49;103061.99999999999;;;3.8;78.91
64023;BME280;50264;52.088;5.296;2023-04-03T00:35:27;103063.00000000001;;;3.77;78.12
64023;BME280;50264;52.088;5.296;2023-04-03T00:37:04;103058.99999999999;;;3.73;79.95
64023;BME280;50264;52.088;5.296;2023-04-03T00:40:18;103056.0;;;3.68;78.74
64023;BME280;50264;52.088;5.296;2023-04-03T00:41:54;103057.0;;;3.64;78.08
64023;BME280;50264;52.088;5.296;2023-04-03T00:43:30;103058.0;;;3.66;78.27
64023;BME280;50264;52.088;5.296;2023-04-03T00:47:09;103063.00000000001;;;3.73;77.75
64023;BME280;50264;52.088;5.296;2023-04-03T00:48:47;103063.00000000001;;;3.67;78.86
64023;BME280;50264;52.088;5.296;2023-04-03T00:50:25;103069.0;;;3.61;78.83
64023;BME280;50264;52.088;5.296;2023-04-03T00:52:03;103068.0;;;3.66;79.62
64023;BME280;50264;52.088;5.296;2023-04-03T00:53:46;103069.0;;;3.55;80.3
64023;BME280;50264;52.088;5.296;2023-04-03T00:57:02;103068.0;;;3.46;80.0
64023;BME280;50264;52.088;5.296;2023-04-03T00:58:44;103072.0;;;3.44;79.75
64023;BME280;50264;52.088;5.296;2023-04-03T01:00:25;103069.0;;;3.42;79.67
64023;BME280;50264;52.088;5.296;2023-04-03T01:02:02;103068.0;;;3.4;79.66
64023;BME280;50264;52.088;5.296;2023-04-03T01:05:15;103067.0;;;3.4;80.42
64023;BME280;50264;52.088;5.296;2023-04-03T01:06:53;103072.0;;;3.29;80.36
64023;BME280;50264;52.088;5.296;2023-04-03T01:08:32;103075.0;;;3.25;80.42
64023;BME280;50264;52.088;5.296;2023-04-03T01:11:49;103069.0;;;3.15;80.8
64023;BME280;50264;52.088;5.296;2023-04-03T01:13:28;103072.0;;;3.22;79.99
64023;BME280;50264;52.088;5.296;2023-04-03T01:15:09;103072.0;;;3.19;82.23
64023;BME280;50264;52.088;5.296;2023-04-03T01:16:52;103075.0;;;3.31;81.08
64023;BME280;50264;52.088;5.296;2023-04-03T01:24:00;103081.0;;;3.05;81.94
64023;BME280;50264;52.088;5.296;2023-04-03T01:25:45;103080.0;;;3.01;83.07
64023;BME280;50264;52.088;5.296;2023-04-03T01:27:24;103080.0;;;3.03;82.55
64023;BME280;50264;52.088;5.296;2023-04-03T01:30:43;103080.0;;;3.02;81.77
64023;BME280;50264;52.088;5.296;2023-04-03T01:32:22;103082.0;;;2.96;82.32
64023;BME280;50264;52.088;5.296;2023-04-03T01:34:00;103076.0;;;2.91;82.77
64023;BME280;50264;52.088;5.296;2023-04-03T01:35:37;103078.0;;;2.88;82.15
64023;BME280;50264;52.088;5.296;2023-04-03T01:38:51;103077.0;;;2.94;82.38
64023;BME280;50264;52.088;5.296;2023-04-03T01:40:27;103072.0;;;2.89;81.91
64023;BME280;50264;52.088;5.296;2023-04-03T01:42:05;103071.0;;;2.84;82.61
64023;BME280;50264;52.088;5.296;2023-04-03T01:45:18;103069.0;;;2.75;82.29
64023;BME280;50264;52.088;5.296;2023-04-03T01:46:54;103077.0;;;2.75;83.23
64023;BME280;50264;52.088;5.296;2023-04-03T01:48:32;103069.0;;;2.78;82.75
64023;BME280;50264;52.088;5.296;2023-04-03T01:50:08;103071.0;;;2.69;82.52
64023;BME280;50264;52.088;5.296;2023-04-03T01:53:22;103074.0;;;2.63;84.47
64023;BME280;50264;52.088;5.296;2023-04-03T01:54:58;103069.0;;;2.6;83.94
64023;BME280;50264;52.088;5.296;2023-04-03T01:56:34;103075.0;;;2.7;82.73
64023;BME280;50264;52.088;5.296;2023-04-03T01:59:46;103081.0;;;2.64;83.63
64023;BME280;50264;52.088;5.296;2023-04-03T02:01:24;103083.0;;;2.68;83.54
64023;BME280;50264;52.088;5.296;2023-04-03T02:03:01;103080.0;;;2.7;83.47
64023;BME280;50264;52.088;5.296;2023-04-03T02:06:15;103080.0;;;2.65;83.37
64023;BME280;50264;52.088;5.296;2023-04-03T02:07:52;103084.99999999999;;;2.7;84.31
64023;BME280;50264;52.088;5.296;2023-04-03T02:09:27;103084.99999999999;;;2.54;83.8
64023;BME280;50264;52.088;5.296;2023-04-03T02:11:04;103090.00000000001;;;2.56;84.92
64023;BME280;50264;52.088;5.296;2023-04-03T02:14:16;103092.0;;;2.46;84.27
64023;BME280;50264;52.088;5.296;2023-04-03T02:15:52;103088.00000000001;;;2.46;84.71
64023;BME280;50264;52.088;5.296;2023-04-03T02:17:29;103093.0;;;2.39;85.04
64023;BME280;50264;52.088;5.296;2023-04-03T02:20:41;103092.0;;;2.35;85.34
64023;BME280;50264;52.088;5.296;2023-04-03T02:22:17;103095.0;;;2.38;85.45
64023;BME280;50264;52.088;5.296;2023-04-03T02:23:53;103098.0;;;2.38;85.02
64023;BME280;50264;52.088;5.296;2023-04-03T02:27:07;103099.0;;;2.42;85.32
64023;BME280;50264;52.088;5.296;2023-04-03T02:28:44;103094.0;;;2.39;85.12
64023;BME280;50264;52.088;5.296;2023-04-03T02:30:20;103092.0;;;2.31;85.92
64023;BME280;50264;52.088;5.296;2023-04-03T02:33:32;103090.00000000001;;;2.27;86.72
64023;BME280;50264;52.088;5.296;2023-04-03T02:35:10;103092.0;;;2.31;85.63
64023;BME280;50264;52.088;5.296;2023-04-03T02:36:47;103092.0;;;2.36;86.22
64023;BME280;50264;52.088;5.296;2023-04-03T02:38:24;103090.00000000001;;;2.46;85.48
64023;BME280;50264;52.088;5.296;2023-04-03T02:41:37;103092.0;;;2.41;85.6
64023;BME280;50264;52.088;5.296;2023-04-03T02:43:13;103092.0;;;2.29;85.37
64023;BME280;50264;52.088;5.296;2023-04-03T02:44:49;103093.0;;;2.32;85.78
64023;BME280;50264;52.088;5.296;2023-04-03T02:48:01;103096.0;;;2.23;86.01
64023;BME280;50264;52.088;5.296;2023-04-03T02:49:37;103101.0;;;2.27;86.09
64023;BME280;50264;52.088;5.296;2023-04-03T02:51:14;103103.0;;;2.21;86.16
64023;BME280;50264;52.088;5.296;2023-04-03T02:54:26;103103.0;;;2.12;86.51
64023;BME280;50264;52.088;5.296;2023-04-03T02:56:02;103101.0;;;2.07;86.55
64023;BME280;50264;52.088;5.296;2023-04-03T02:57:38;103113.00000000001;;;2.08;87.79
64023;BME280;50264;52.088;5.296;2023-04-03T02:59:15;103108.99999999999;;;2.08;87.26
64023;BME280;50264;52.088;5.296;2023-04-03T03:02:28;103111.99999999999;;;2.09;86.75
64023;BME280;50264;52.088;5.296;2023-04-03T03:04:04;103113.00000000001;;;2.15;86.66
64023;BME280;50264;52.088;5.296;2023-04-03T03:05:40;103114.00000000001;;;2.21;86.83
64023;BME280;50264;52.088;5.296;2023-04-03T03:08:53;103117.0;;;2.19;86.69
64023;BME280;50264;52.088;5.296;2023-04-03T03:10:29;103119.0;;;2.14;87.69
64023;BME280;50264;52.088;5.296;2023-04-03T03:12:05;103121.0;;;2.17;88.16
64023;BME280;50264;52.088;5.296;2023-04-03T03:15:18;103123.0;;;2.07;87.37
64023;BME280;50264;52.088;5.296;2023-04-03T03:16:54;103122.0;;;2.12;87.3
64023;BME280;50264;52.088;5.296;2023-04-03T03:18:30;103122.0;;;2.17;87.37
64023;BME280;50264;52.088;5.296;2023-04-03T03:20:07;103121.0;;;2.12;87.47
64023;BME280;50264;52.088;5.296;2023-04-03T03:23:21;103122.0;;;2.02;87.21
64023;BME280;50264;52.088;5.296;2023-04-03T03:25:00;103127.0;;;2.05;87.24
64023;BME280;50264;52.088;5.296;2023-04-03T03:26:37;103127.0;;;2.04;87.34
64023;BME280;50264;52.088;5.296;2023-04-03T03:29:50;103124.0;;;2.05;87.3
64023;BME280;50264;52.088;5.296;2023-04-03T03:31:26;103126.0;;;2.1;88.22
64023;BME280;50264;52.088;5.296;2023-04-03T03:33:02;103129.0;;;2.02;87.65
64023;BME280;50264;52.088;5.296;2023-04-03T03:36:15;103132.0;;;2.07;87.66
64023;BME280;50264;52.088;5.296;2023-04-03T03:37:51;103130.0;;;2.14;88.63
64023;BME280;50264;52.088;5.296;2023-04-03T03:39:28;103133.99999999999;;;2.15;87.53
64023;BME280;50264;52.088;5.296;2023-04-03T03:41:04;103138.00000000001;;;2.08;88.31
64023;BME280;50264;52.088;5.296;2023-04-03T03:44:16;103133.99999999999;;;2.19;87.57
64023;BME280;50264;52.088;5.296;2023-04-03T03:45:53;103136.99999999999;;;2.21;87.26
64023;BME280;50264;52.088;5.296;2023-04-03T03:47:30;103141.00000000001;;;2.19;87.62
64023;BME280;50264;52.088;5.296;2023-04-03T03:50:42;103138.00000000001;;;2.13;87.51
64023;BME280;50264;52.088;5.296;2023-04-03T03:52:18;103133.0;;;2.27;87.37
64023;BME280;50264;52.088;5.296;2023-04-03T03:53:54;103139.00000000001;;;2.33;87.25
64023;BME280;50264;52.088;5.296;2023-04-03T03:57:07;103139.00000000001;;;2.27;87.44
64023;BME280;50264;52.088;5.296;2023-04-03T03:58:44;103146.0;;;2.23;87.44
64023;BME280;50264;52.088;5.296;2023-04-03T04:00:20;103143.0;;;2.21;87.66
64023;BME280;50264;52.088;5.296;2023-04-03T04:01:56;103140.00000000001;;;2.1;87.6
64023;BME280;50264;52.088;5.296;2023-04-03T04:05:09;103143.0;;;2.08;87.66
64023;BME280;50264;52.088;5.296;2023-04-03T04:06:45;103142.0;;;2.11;87.99
64023;BME280;50264;52.088;5.296;2023-04-03T04:08:21;103142.0;;;2.09;87.87
64023;BME280;50264;52.088;5.296;2023-04-03T04:11:34;103142.0;;;1.97;87.87
64023;BME280;50264;52.088;5.296;2023-04-03T04:13:10;103143.0;;;1.92;87.8
64023;BME280;50264;52.088;5.296;2023-04-03T04:14:46;103142.0;;;1.85;88.03
64023;BME280;50264;52.088;5.296;2023-04-03T04:17:59;103144.0;;;1.79;87.64
64023;BME280;50264;52.088;5.296;2023-04-03T04:19:35;103148.0;;;1.7;88.15
64023;BME280;50264;52.088;5.296;2023-04-03T04:21:11;103148.0;;;1.68;88.69
64023;BME280;50264;52.088;5.296;2023-04-03T04:24:23;103147.0;;;1.6;88.58
64023;BME280;50264;52.088;5.296;2023-04-03T04:26:00;103148.0;;;1.52;89.36
64023;BME280;50264;52.088;5.296;2023-04-03T04:27:37;103150.0;;;1.63;89.29
64023;BME280;50264;52.088;5.296;2023-04-03T04:29:13;103153.0;;;1.62;88.8
64023;BME280;50264;52.088;5.296;2023-04-03T04:32:25;103158.99999999999;;;1.5;89.25
64023;BME280;50264;52.088;5.296;2023-04-03T04:34:02;103157.0;;;1.61;89.14
64023;BME280;50264;52.088;5.296;2023-04-03T04:35:38;103158.99999999999;;;1.57;89.4
64023;BME280;50264;52.088;5.296;2023-04-03T04:38:50;103156.0;;;1.59;89.3
64023;BME280;50264;52.088;5.296;2023-04-03T04:40:28;103156.0;;;1.51;89.48
64023;BME280;50264;52.088;5.296;2023-04-03T04:42:04;103158.0;;;1.49;89.67
64023;BME280;50264;52.088;5.296;2023-04-03T04:45:16;103158.0;;;1.43;89.95
64023;BME280;50264;52.088;5.296;2023-04-03T04:46:53;103158.0;;;1.52;89.5
64023;BME280;50264;52.088;5.296;2023-04-03T04:48:28;103163.00000000001;;;1.61;88.63
64023;BME280;50264;52.088;5.296;2023-04-03T04:50:05;103168.0;;;1.63;88.86
64023;BME280;50264;52.088;5.296;2023-04-03T04:53:18;103165.00000000001;;;1.46;89.63
64023;BME280;50264;52.088;5.296;2023-04-03T04:54:54;103167.0;;;1.53;89.73
64023;BME280;50264;52.088;5.296;2023-04-03T04:56:31;103163.00000000001;;;1.53;89.34
64023;BME280;50264;52.088;5.296;2023-04-03T04:59:43;103165.00000000001;;;1.66;88.81
64023;BME280;50264;52.088;5.296;2023-04-03T05:01:19;103164.00000000001;;;1.73;88.2
64023;BME280;50264;52.088;5.296;2023-04-03T05:02:55;103163.00000000001;;;1.56;87.83
64023;BME280;50264;52.088;5.296;2023-04-03T05:06:08;103166.00000000001;;;1.59;88.83
64023;BME280;50264;52.088;5.296;2023-04-03T05:07:44;103166.00000000001;;;1.55;88.71
64023;BME280;50264;52.088;5.296;2023-04-03T05:09:20;103163.00000000001;;;1.45;89.01
64023;BME280;50264;52.088;5.296;2023-04-03T05:10:56;103161.99999999999;;;1.4;89.64
64023;BME280;50264;52.088;5.296;2023-04-03T05:14:09;103167.0;;;1.41;89.56
64023;BME280;50264;52.088;5.296;2023-04-03T05:15:45;103170.0;;;1.3;89.17
64023;BME280;50264;52.088;5.296;2023-04-03T05:17:22;103171.0;;;1.2;89.14
64023;BME280;50264;52.088;5.296;2023-04-03T05:20:35;103167.0;;;1.28;90.1
64023;BME280;50264;52.088;5.296;2023-04-03T05:22:11;103167.0;;;1.23;90.36
64023;BME280;50264;52.088;5.296;2023-04-03T05:23:47;103174.0;;;1.17;90.04
64023;BME280;50264;52.088;5.296;2023-04-03T05:26:59;103176.0;;;1.31;90.83
64023;BME280;50264;52.088;5.296;2023-04-03T05:28:35;103182.0;;;1.28;90.49
64023;BME280;50264;52.088;5.296;2023-04-03T05:30:12;103180.0;;;1.34;90.77
64023;BME280;50264;52.088;5.296;2023-04-03T05:33:26;103183.99999999999;;;1.37;90.07
64023;BME280;50264;52.088;5.296;2023-04-03T05:35:03;103183.99999999999;;;1.4;90.34
64023;BME280;50264;52.088;5.296;2023-04-03T05:36:40;103186.99999999999;;;1.57;89.77
64023;BME280;50264;52.088;5.296;2023-04-03T05:38:16;103186.99999999999;;;1.63;90.83
64023;BME280;50264;52.088;5.296;2023-04-03T05:41:28;103192.0;;;1.59;90.02
64023;BME280;50264;52.088;5.296;2023-04-03T05:43:04;103188.00000000001;;;1.65;89.9
64023;BME280;50264;52.088;5.296;2023-04-03T05:44:41;103188.00000000001;;;1.7;90.29
64023;BME280;50264;52.088;5.296;2023-04-03T05:47:55;103191.00000000001;;;1.62;89.92
64023;BME280;50264;52.088;5.296;2023-04-03T05:49:31;103189.00000000001;;;1.59;90.31
64023;BME280;50264;52.088;5.296;2023-04-03T05:51:14;103192.0;;;1.65;89.79
64023;BME280;50264;52.088;5.296;2023-04-03T05:52:52;103195.0;;;1.63;90.45
64023;BME280;50264;52.088;5.296;2023-04-03T05:56:07;103198.0;;;1.69;89.58
64023;BME280;50264;52.088;5.296;2023-04-03T05:57:43;103201.0;;;1.81;90.45
64023;BME280;50264;52.088;5.296;2023-04-03T05:59:20;103205.0;;;1.72;89.49
64023;BME280;50264;52.088;5.296;2023-04-03T06:02:33;103203.0;;;1.83;89.96
64023;BME280;50264;52.088;5.296;2023-04-03T06:04:09;103208.99999999999;;;1.77;88.78
64023;BME280;50264;52.088;5.296;2023-04-03T06:05:46;103207.0;;;1.79;89.05
64023;BME280;50264;52.088;5.296;2023-04-03T06:09:00;103211.99999999999;;;1.91;89.72
64023;BME280;50264;52.088;5.296;2023-04-03T06:10:36;103208.99999999999;;;2.04;89.15
64023;BME280;50264;52.088;5.296;2023-04-03T06:12:13;103203.0;;;2.04;88.48
64023;BME280;50264;52.088;5.296;2023-04-03T06:13:49;103202.0;;;2.11;88.59
64023;BME280;50264;52.088;5.296;2023-04-03T06:17:03;103203.0;;;2.21;89.13
64023;BME280;50264;52.088;5.296;2023-04-03T06:18:39;103208.99999999999;;;2.29;87.22
64023;BME280;50264;52.088;5.296;2023-04-03T06:25:13;103214.00000000001;;;2.46;87.44
64023;BME280;50264;52.088;5.296;2023-04-03T06:26:50;103211.99999999999;;;2.42;87.28
64023;BME280;50264;52.088;5.296;2023-04-03T06:28:26;103211.99999999999;;;2.56;86.44
64023;BME280;50264;52.088;5.296;2023-04-03T06:31:38;103215.00000000001;;;2.56;86.28
64023;BME280;50264;52.088;5.296;2023-04-03T06:33:14;103215.00000000001;;;2.63;85.77
64023;BME280;50264;52.088;5.296;2023-04-03T06:34:50;103217.0;;;2.81;86.11
64023;BME280;50264;52.088;5.296;2023-04-03T06:38:02;103214.00000000001;;;3.02;86.1
64023;BME280;50264;52.088;5.296;2023-04-03T06:39:38;103219.0;;;3.03;84.76
64023;BME280;50264;52.088;5.296;2023-04-03T06:41:15;103219.0;;;3.05;84.31
64023;BME280;50264;52.088;5.296;2023-04-03T06:44:28;103224.0;;;3.24;83.62
64023;BME280;50264;52.088;5.296;2023-04-03T06:46:04;103232.0;;;3.26;83.84
64023;BME280;50264;52.088;5.296;2023-04-03T06:47:40;103234.99999999999;;;3.27;82.51
64023;BME280;50264;52.088;5.296;2023-04-03T06:49:16;103236.99999999999;;;3.39;82.74
64023;BME280;50264;52.088;5.296;2023-04-03T06:52:29;103233.99999999999;;;3.45;82.41
64023;BME280;50264;52.088;5.296;2023-04-03T06:54:06;103229.0;;;3.52;82.02
64023;BME280;50264;52.088;5.296;2023-04-03T06:55:42;103238.00000000001;;;3.53;82.3
64023;BME280;50264;52.088;5.296;2023-04-03T06:58:55;103239.00000000001;;;3.63;80.69
64023;BME280;50264;52.088;5.296;2023-04-03T07:00:31;103240.00000000001;;;3.81;80.66
64023;BME280;50264;52.088;5.296;2023-04-03T07:02:09;103233.99999999999;;;3.83;79.95
64023;BME280;50264;52.088;5.296;2023-04-03T07:05:24;103244.0;;;3.83;80.78
64023;BME280;50264;52.088;5.296;2023-04-03T07:07:01;103255.0;;;3.79;78.66
64023;BME280;50264;52.088;5.296;2023-04-03T07:08:38;103246.0;;;3.77;78.66
64023;BME280;50264;52.088;5.296;2023-04-03T07:10:14;103251.0;;;3.91;78.53
64023;BME280;50264;52.088;5.296;2023-04-03T07:13:27;103251.0;;;3.87;78.8
64023;BME280;50264;52.088;5.296;2023-04-03T07:15:04;103256.0;;;3.98;78.5
64023;BME280;50264;52.088;5.296;2023-04-03T07:16:40;103254.0;;;4.03;79.31
64023;BME280;50264;52.088;5.296;2023-04-03T07:19:52;103251.0;;;4.2;78.05
64023;BME280;50264;52.088;5.296;2023-04-03T07:21:29;103255.0;;;4.28;78.2
64023;BME280;50264;52.088;5.296;2023-04-03T07:23:05;103258.0;;;4.37;77.3
64023;BME280;50264;52.088;5.296;2023-04-03T07:26:18;103259.99999999999;;;4.54;75.83
64023;BME280;50264;52.088;5.296;2023-04-03T07:27:55;103267.0;;;4.57;76.53
64023;BME280;50264;52.088;5.296;2023-04-03T07:29:31;103268.0;;;4.53;75.94
64023;BME280;50264;52.088;5.296;2023-04-03T07:31:10;103273.0;;;4.55;75.14
64023;BME280;50264;52.088;5.296;2023-04-03T07:34:23;103269.0;;;4.67;75.83
64023;BME280;50264;52.088;5.296;2023-04-03T07:36:00;103265.00000000001;;;4.67;74.52
64023;BME280;50264;52.088;5.296;2023-04-03T07:37:37;103264.00000000001;;;4.7;73.61
64023;BME280;50264;52.088;5.296;2023-04-03T07:40:50;103269.0;;;4.87;72.47
64023;BME280;50264;52.088;5.296;2023-04-03T07:42:26;103267.0;;;4.91;73.17
64023;BME280;50264;52.088;5.296;2023-04-03T07:44:03;103269.0;;;4.96;73.22
64023;BME280;50264;52.088;5.296;2023-04-03T07:47:18;103268.0;;;4.99;73.39
64023;BME280;50264;52.088;5.296;2023-04-03T07:48:54;103264.00000000001;;;5.12;72.34
64023;BME280;50264;52.088;5.296;2023-04-03T07:50:31;103273.0;;;5.22;72.11
64023;BME280;50264;52.088;5.296;2023-04-03T07:52:07;103269.0;;;5.25;70.06
64023;BME280;50264;52.088;5.296;2023-04-03T07:55:19;103273.0;;;5.16;70.8
64023;BME280;50264;52.088;5.296;2023-04-03T07:56:55;103275.0;;;5.21;68.94
64023;BME280;50264;52.088;5.296;2023-04-03T07:58:31;103273.0;;;5.32;69.53
64023;BME280;50264;52.088;5.296;2023-04-03T08:01:44;103275.0;;;5.23;69.08
64023;BME280;50264;52.088;5.296;2023-04-03T08:03:21;103276.0;;;5.36;67.0
64023;BME280;50264;52.088;5.296;2023-04-03T08:04:57;103272.0;;;5.46;66.91
64023;BME280;50264;52.088;5.296;2023-04-03T08:08:10;103272.0;;;5.31;67.41
64023;BME280;50264;52.088;5.296;2023-04-03T08:09:47;103270.0;;;5.38;66.89
64023;BME280;50264;52.088;5.296;2023-04-03T08:11:23;103271.0;;;5.5;67.85
64023;BME280;50264;52.088;5.296;2023-04-03T08:13:00;103277.0;;;5.44;65.62
64023;BME280;50264;52.088;5.296;2023-04-03T08:16:17;103282.0;;;5.57;68.13
64023;BME280;50264;52.088;5.296;2023-04-03T08:17:54;103290.00000000001;;;5.47;62.98
64023;BME280;50264;52.088;5.296;2023-04-03T08:19:30;103290.00000000001;;;5.72;66.38
64023;BME280;50264;52.088;5.296;2023-04-03T08:22:44;103290.00000000001;;;5.71;67.5
64023;BME280;50264;52.088;5.296;2023-04-03T08:24:20;103292.0;;;5.68;68.88
64023;BME280;50264;52.088;5.296;2023-04-03T08:25:56;103298.0;;;5.68;66.41
64023;BME280;50264;52.088;5.296;2023-04-03T08:29:09;103300.0;;;5.71;63.4
64023;BME280;50264;52.088;5.296;2023-04-03T08:30:46;103302.0;;;5.83;63.52
64023;BME280;50264;52.088;5.296;2023-04-03T08:32:22;103298.0;;;5.98;65.24
64023;BME280;50264;52.088;5.296;2023-04-03T08:33:58;103300.0;;;6.14;64.09
64023;BME280;50264;52.088;5.296;2023-04-03T08:37:14;103297.0;;;6.36;63.83
64023;BME280;50264;52.088;5.296;2023-04-03T08:38:51;103301.0;;;6.58;64.95
64023;BME280;50264;52.088;5.296;2023-04-03T08:40:28;103307.0;;;6.72;64.58
64023;BME280;50264;52.088;5.296;2023-04-03T08:43:58;103302.0;;;6.69;60.88
64023;BME280;50264;52.088;5.296;2023-04-03T08:45:44;103302.0;;;6.77;59.33
64023;BME280;50264;52.088;5.296;2023-04-03T08:47:24;103305.0;;;7.06;60.78
64023;BME280;50264;52.088;5.296;2023-04-03T08:49:07;103309.99999999999;;;6.94;56.1
64023;BME280;50264;52.088;5.296;2023-04-03T08:50:53;103304.0;;;7.07;56.75
64023;BME280;50264;52.088;5.296;2023-04-03T08:54:23;103309.99999999999;;;7.15;53.68
64023;BME280;50264;52.088;5.296;2023-04-03T08:56:02;103307.0;;;7.23;54.02
64023;BME280;50264;52.088;5.296;2023-04-03T08:57:45;103298.0;;;7.38;53.9
64023;BME280;50264;52.088;5.296;2023-04-03T08:59:27;103296.0;;;7.49;52.12
64023;BME280;50264;52.088;5.296;2023-04-03T09:01:10;103293.0;;;7.51;49.99
64023;BME280;50264;52.088;5.296;2023-04-03T09:04:32;103293.0;;;7.7;54.07
64023;BME280;50264;52.088;5.296;2023-04-03T09:06:13;103288.00000000001;;;7.8;49.59
64023;BME280;50264;52.088;5.296;2023-04-03T09:07:58;103286.99999999999;;;7.89;49.14
64023;BME280;50264;52.088;5.296;2023-04-03T09:09:39;103289.00000000001;;;7.97;46.6
64023;BME280;50264;52.088;5.296;2023-04-03T09:13:05;103284.99999999999;;;8.03;51.89
64023;BME280;50264;52.088;5.296;2023-04-03T09:14:50;103293.0;;;7.97;47.44
64023;BME280;50264;52.088;5.296;2023-04-03T09:16:37;103289.00000000001;;;8.19;49.3
64023;BME280;50264;52.088;5.296;2023-04-03T09:18:27;103294.0;;;8.34;47.68
64023;BME280;50264;52.088;5.296;2023-04-03T09:20:17;103284.99999999999;;;8.4;46.39
64023;BME280;50264;52.088;5.296;2023-04-03T09:23:36;103291.00000000001;;;8.48;44.71
64023;BME280;50264;52.088;5.296;2023-04-03T09:25:20;103284.99999999999;;;8.74;48.42
64023;BME280;50264;52.088;5.296;2023-04-03T09:26:59;103294.0;;;8.72;48.11
64023;BME280;50264;52.088;5.296;2023-04-03T09:28:41;103294.0;;;8.81;43.1
64023;BME280;50264;52.088;5.296;2023-04-03T09:32:00;103290.00000000001;;;8.91;44.31
64023;BME280;50264;52.088;5.296;2023-04-03T09:33:36;103283.99999999999;;;8.91;44.74
64023;BME280;50264;52.088;5.296;2023-04-03T09:35:20;103276.0;;;9.19;45.33
64023;BME280;50264;52.088;5.296;2023-04-03T09:36:58;103268.0;;;9.33;44.05
64023;BME280;50264;52.088;5.296;2023-04-03T09:40:45;103275.0;;;9.38;41.0
64023;BME280;50264;52.088;5.296;2023-04-03T09:42:23;103266.00000000001;;;9.39;42.05
64023;BME280;50264;52.088;5.296;2023-04-03T09:43:59;103261.99999999999;;;9.44;44.06
64023;BME280;50264;52.088;5.296;2023-04-03T09:45:35;103266.00000000001;;;9.49;42.81
64023;BME280;50264;52.088;5.296;2023-04-03T09:47:19;103265.00000000001;;;9.4;38.68
64023;BME280;50264;52.088;5.296;2023-04-03T09:50:54;103270.0;;;9.38;36.85
64023;BME280;50264;52.088;5.296;2023-04-03T09:52:33;103267.0;;;9.49;39.25
64023;BME280;50264;52.088;5.296;2023-04-03T09:54:32;103265.00000000001;;;9.68;41.37
64023;BME280;50264;52.088;5.296;2023-04-03T09:56:21;103258.0;;;9.64;38.06
64023;BME280;50264;52.088;5.296;2023-04-03T09:58:00;103256.0;;;9.88;38.64
64023;BME280;50264;52.088;5.296;2023-04-03T10:01:25;103255.0;;;9.73;37.64
64023;BME280;50264;52.088;5.296;2023-04-03T10:03:04;103251.0;;;9.61;35.03
64023;BME280;50264;52.088;5.296;2023-04-03T10:04:42;103246.0;;;9.76;37.81
64023;BME280;50264;52.088;5.296;2023-04-03T10:06:23;103246.0;;;9.76;37.28
64023;BME280;50264;52.088;5.296;2023-04-03T10:10:00;103243.0;;;9.96;37.1
64023;BME280;50264;52.088;5.296;2023-04-03T10:11:57;103241.00000000001;;;10.08;38.12
64023;BME280;50264;52.088;5.296;2023-04-03T10:13:34;103232.0;;;9.92;40.37
64023;BME280;50264;52.088;5.296;2023-04-03T10:15:12;103234.99999999999;;;10.18;39.64
64023;BME280;50264;52.088;5.296;2023-04-03T10:16:54;103232.0;;;10.28;39.78
64023;BME280;50264;52.088;5.296;2023-04-03T10:18:40;103238.00000000001;;;10.13;37.1
64023;BME280;50264;52.088;5.296;2023-04-03T10:22:16;103232.0;;;10.27;35.65
64023;BME280;50264;52.088;5.296;2023-04-03T10:24:02;103222.0;;;10.3;34.81
64023;BME280;50264;52.088;5.296;2023-04-03T10:25:52;103221.0;;;10.4;34.53
64023;BME280;50264;52.088;5.296;2023-04-03T10:27:40;103222.0;;;10.61;36.49
64023;BME280;50264;52.088;5.296;2023-04-03T10:29:27;103216.00000000001;;;10.53;36.14
64023;BME280;50264;52.088;5.296;2023-04-03T10:31:18;103209.99999999999;;;10.49;34.61
64023;BME280;50264;52.088;5.296;2023-04-03T10:34:57;103208.99999999999;;;10.55;39.11
64023;BME280;50264;52.088;5.296;2023-04-03T10:36:42;103207.0;;;10.68;34.49
64023;BME280;50264;52.088;5.296;2023-04-03T10:38:31;103195.0;;;10.72;35.74
64023;BME280;50264;52.088;5.296;2023-04-03T10:40:22;103194.0;;;10.9;37.1
64023;BME280;50264;52.088;5.296;2023-04-03T10:42:08;103201.0;;;11.06;36.21
64023;BME280;50264;52.088;5.296;2023-04-03T10:43:59;103203.0;;;10.67;30.91
64023;BME280;50264;52.088;5.296;2023-04-03T10:45:51;103191.00000000001;;;10.71;32.89
64023;BME280;50264;52.088;5.296;2023-04-03T10:49:29;103180.0;;;10.97;37.0
64023;BME280;50264;52.088;5.296;2023-04-03T10:51:18;103193.0;;;11.19;32.64
64023;BME280;50264;52.088;5.296;2023-04-03T10:53:04;103177.0;;;11.25;29.15
64023;BME280;50264;52.088;5.296;2023-04-03T10:54:47;103172.0;;;11.43;33.76
64023;BME280;50264;52.088;5.296;2023-04-03T10:56:33;103181.0;;;11.62;32.17